sensor_id;sensor_type;location;lat;lon;timestamp;temperature;humidity
65598;SHT31;52267;51.984;20.956;2023-03-01T00:01:39;-4.66;77.35
65598;SHT31;52267;51.984;20.956;2023-03-01T00:04:06;-4.64;77.30
65598;SHT31;52267;51.984;20.956;2023-03-01T00:06:33;-4.64;77.33
65598;SHT31;52267;51.984;20.956;2023-03-01T00:09:00;-4.63;77.42
65598;SHT31;52267;51.984;20.956;2023-03-01T00:11:28;-4.60;77.42
65598;SHT31;52267;51.984;20.956;2023-03-01T00:13:59;-4.56;77.37
65598;SHT31;52267;51.984;20.956;2023-03-01T00:16:29;-4.55;77.39
65598;SHT31;52267;51.984;20.956;2023-03-01T00:19:02;-4.53;77.36
65598;SHT31;52267;51.984;20.956;2023-03-01T00:21:29;-4.53;76.99
65598;SHT31;52267;51.984;20.956;2023-03-01T00:23:56;-4.55;76.43
65598;SHT31;52267;51.984;20.956;2023-03-01T00:26:24;-4.55;76.76
65598;SHT31;52267;51.984;20.956;2023-03-01T00:28:52;-4.55;76.99
65598;SHT31;52267;51.984;20.956;2023-03-01T00:31:24;-4.52;77.14
65598;SHT31;52267;51.984;20.956;2023-03-01T00:34:01;-4.48;77.23
65598;SHT31;52267;51.984;20.956;2023-03-01T00:36:32;-4.50;77.32
65598;SHT31;52267;51.984;20.956;2023-03-01T00:39:02;-4.48;77.36
65598;SHT31;52267;51.984;20.956;2023-03-01T00:41:32;-4.47;77.40
65598;SHT31;52267;51.984;20.956;2023-03-01T00:44:00;-4.47;77.44
65598;SHT31;52267;51.984;20.956;2023-03-01T00:46:28;-4.47;77.53
65598;SHT31;52267;51.984;20.956;2023-03-01T00:48:56;-4.45;77.46
65598;SHT31;52267;51.984;20.956;2023-03-01T00:51:25;-4.45;77.46
65598;SHT31;52267;51.984;20.956;2023-03-01T00:53:55;-4.43;77.32
65598;SHT31;52267;51.984;20.956;2023-03-01T00:56:24;-4.43;77.34
65598;SHT31;52267;51.984;20.956;2023-03-01T00:58:52;-4.44;77.52
65598;SHT31;52267;51.984;20.956;2023-03-01T01:01:21;-4.47;77.66
65598;SHT31;52267;51.984;20.956;2023-03-01T01:03:54;-4.49;77.78
65598;SHT31;52267;51.984;20.956;2023-03-01T01:06:25;-4.49;77.80
65598;SHT31;52267;51.984;20.956;2023-03-01T01:09:05;-4.51;77.95
65598;SHT31;52267;51.984;20.956;2023-03-01T01:11:33;-4.49;77.91
65598;SHT31;52267;51.984;20.956;2023-03-01T01:14:04;-4.46;77.66
65598;SHT31;52267;51.984;20.956;2023-03-01T01:16:31;-4.41;77.52
65598;SHT31;52267;51.984;20.956;2023-03-01T01:18:58;-4.37;77.73
65598;SHT31;52267;51.984;20.956;2023-03-01T01:21:25;-4.38;77.80
65598;SHT31;52267;51.984;20.956;2023-03-01T01:23:53;-4.35;77.78
65598;SHT31;52267;51.984;20.956;2023-03-01T01:26:25;-4.34;77.82
65598;SHT31;52267;51.984;20.956;2023-03-01T01:28:55;-4.32;77.88
65598;SHT31;52267;51.984;20.956;2023-03-01T01:31:23;-4.28;77.84
65598;SHT31;52267;51.984;20.956;2023-03-01T01:33:51;-4.30;77.87
65598;SHT31;52267;51.984;20.956;2023-03-01T01:36:19;-4.41;78.20
65598;SHT31;52267;51.984;20.956;2023-03-01T01:38:47;-4.48;78.31
65598;SHT31;52267;51.984;20.956;2023-03-01T01:41:15;-4.48;77.69
65598;SHT31;52267;51.984;20.956;2023-03-01T01:44:08;-4.51;77.91
65598;SHT31;52267;51.984;20.956;2023-03-01T01:46:42;-4.53;78.25
65598;SHT31;52267;51.984;20.956;2023-03-01T01:51:51;-4.59;78.42
65598;SHT31;52267;51.984;20.956;2023-03-01T01:54:38;-4.60;78.45
65598;SHT31;52267;51.984;20.956;2023-03-01T01:57:15;-4.63;78.50
65598;SHT31;52267;51.984;20.956;2023-03-01T01:59:48;-4.58;78.33
65598;SHT31;52267;51.984;20.956;2023-03-01T02:02:20;-4.58;78.26
65598;SHT31;52267;51.984;20.956;2023-03-01T02:04:48;-4.63;78.30
65598;SHT31;52267;51.984;20.956;2023-03-01T02:07:20;-4.64;78.31
65598;SHT31;52267;51.984;20.956;2023-03-01T02:09:50;-4.64;78.23
65598;SHT31;52267;51.984;20.956;2023-03-01T02:12:23;-4.67;78.34
65598;SHT31;52267;51.984;20.956;2023-03-01T02:14:51;-4.73;78.66
65598;SHT31;52267;51.984;20.956;2023-03-01T02:17:18;-4.71;78.60
65598;SHT31;52267;51.984;20.956;2023-03-01T02:22:34;-4.72;78.49
65598;SHT31;52267;51.984;20.956;2023-03-01T02:30:40;-4.72;78.39
65598;SHT31;52267;51.984;20.956;2023-03-01T02:33:36;-4.72;78.40
65598;SHT31;52267;51.984;20.956;2023-03-01T02:36:06;-4.72;78.37
65598;SHT31;52267;51.984;20.956;2023-03-01T02:38:40;-4.79;78.61
65598;SHT31;52267;51.984;20.956;2023-03-01T02:41:08;-4.81;78.56
65598;SHT31;52267;51.984;20.956;2023-03-01T02:43:40;-4.90;79.04
65598;SHT31;52267;51.984;20.956;2023-03-01T02:46:08;-4.91;79.00
65598;SHT31;52267;51.984;20.956;2023-03-01T02:48:44;-4.89;78.67
65598;SHT31;52267;51.984;20.956;2023-03-01T02:54:18;-4.98;78.95
65598;SHT31;52267;51.984;20.956;2023-03-01T02:56:51;-4.95;78.84
65598;SHT31;52267;51.984;20.956;2023-03-01T02:59:20;-5.01;78.94
65598;SHT31;52267;51.984;20.956;2023-03-01T03:01:51;-5.00;79.10
65598;SHT31;52267;51.984;20.956;2023-03-01T03:04:18;-5.02;79.19
65598;SHT31;52267;51.984;20.956;2023-03-01T03:06:47;-5.00;79.03
65598;SHT31;52267;51.984;20.956;2023-03-01T03:09:17;-4.99;78.98
65598;SHT31;52267;51.984;20.956;2023-03-01T03:11:45;-4.97;78.93
65598;SHT31;52267;51.984;20.956;2023-03-01T03:14:13;-4.99;79.12
65598;SHT31;52267;51.984;20.956;2023-03-01T03:16:43;-5.03;79.34
65598;SHT31;52267;51.984;20.956;2023-03-01T03:19:16;-5.02;79.20
65598;SHT31;52267;51.984;20.956;2023-03-01T03:21:45;-4.97;78.97
65598;SHT31;52267;51.984;20.956;2023-03-01T03:24:12;-4.98;79.04
65598;SHT31;52267;51.984;20.956;2023-03-01T03:26:39;-5.03;79.21
65598;SHT31;52267;51.984;20.956;2023-03-01T03:29:06;-5.08;79.33
65598;SHT31;52267;51.984;20.956;2023-03-01T03:31:34;-5.08;79.30
65598;SHT31;52267;51.984;20.956;2023-03-01T03:34:01;-5.04;79.24
65598;SHT31;52267;51.984;20.956;2023-03-01T03:36:28;-5.00;79.28
65598;SHT31;52267;51.984;20.956;2023-03-01T03:38:55;-4.96;79.19
65598;SHT31;52267;51.984;20.956;2023-03-01T03:41:22;-4.94;79.04
65598;SHT31;52267;51.984;20.956;2023-03-01T03:43:49;-4.92;78.84
65598;SHT31;52267;51.984;20.956;2023-03-01T03:46:16;-4.88;78.95
65598;SHT31;52267;51.984;20.956;2023-03-01T03:48:44;-4.84;78.65
65598;SHT31;52267;51.984;20.956;2023-03-01T03:51:16;-4.76;79.02
65598;SHT31;52267;51.984;20.956;2023-03-01T03:53:44;-4.71;79.18
65598;SHT31;52267;51.984;20.956;2023-03-01T03:56:12;-4.69;79.10
65598;SHT31;52267;51.984;20.956;2023-03-01T03:58:40;-4.65;79.00
65598;SHT31;52267;51.984;20.956;2023-03-01T04:01:07;-4.59;79.06
65598;SHT31;52267;51.984;20.956;2023-03-01T04:03:34;-4.58;79.20
65598;SHT31;52267;51.984;20.956;2023-03-01T04:06:01;-4.56;78.91
65598;SHT31;52267;51.984;20.956;2023-03-01T04:08:30;-4.49;78.45
65598;SHT31;52267;51.984;20.956;2023-03-01T04:10:59;-4.39;78.19
65598;SHT31;52267;51.984;20.956;2023-03-01T04:13:48;-4.29;78.61
65598;SHT31;52267;51.984;20.956;2023-03-01T04:16:15;-4.27;78.69
65598;SHT31;52267;51.984;20.956;2023-03-01T04:18:43;-4.24;78.75
65598;SHT31;52267;51.984;20.956;2023-03-01T04:21:10;-4.22;78.83
65598;SHT31;52267;51.984;20.956;2023-03-01T04:23:38;-4.20;78.67
65598;SHT31;52267;51.984;20.956;2023-03-01T04:26:07;-4.11;78.31
65598;SHT31;52267;51.984;20.956;2023-03-01T04:28:37;-4.00;78.14
65598;SHT31;52267;51.984;20.956;2023-03-01T04:31:13;-3.89;77.43
65598;SHT31;52267;51.984;20.956;2023-03-01T04:33:45;-3.76;78.15
65598;SHT31;52267;51.984;20.956;2023-03-01T04:36:15;-3.66;78.57
65598;SHT31;52267;51.984;20.956;2023-03-01T04:38:43;-3.57;78.47
65598;SHT31;52267;51.984;20.956;2023-03-01T04:41:16;-3.50;78.76
65598;SHT31;52267;51.984;20.956;2023-03-01T04:43:45;-3.46;78.71
65598;SHT31;52267;51.984;20.956;2023-03-01T04:46:12;-3.42;78.56
65598;SHT31;52267;51.984;20.956;2023-03-01T04:48:43;-3.38;78.50
65598;SHT31;52267;51.984;20.956;2023-03-01T04:51:11;-3.34;78.51
65598;SHT31;52267;51.984;20.956;2023-03-01T04:53:42;-3.32;78.50
65598;SHT31;52267;51.984;20.956;2023-03-01T04:56:10;-3.31;78.49
65598;SHT31;52267;51.984;20.956;2023-03-01T04:58:37;-3.32;78.16
65598;SHT31;52267;51.984;20.956;2023-03-01T05:01:08;-3.30;77.62
65598;SHT31;52267;51.984;20.956;2023-03-01T05:03:42;-3.26;77.91
65598;SHT31;52267;51.984;20.956;2023-03-01T05:06:19;-3.23;77.92
65598;SHT31;52267;51.984;20.956;2023-03-01T05:08:47;-3.20;77.54
65598;SHT31;52267;51.984;20.956;2023-03-01T05:11:14;-3.17;77.59
65598;SHT31;52267;51.984;20.956;2023-03-01T05:13:41;-3.13;77.50
65598;SHT31;52267;51.984;20.956;2023-03-01T05:16:08;-3.09;77.51
65598;SHT31;52267;51.984;20.956;2023-03-01T05:18:37;-3.05;77.92
65598;SHT31;52267;51.984;20.956;2023-03-01T05:21:06;-3.00;77.99
65598;SHT31;52267;51.984;20.956;2023-03-01T05:23:45;-2.97;77.96
65598;SHT31;52267;51.984;20.956;2023-03-01T05:26:13;-2.95;78.07
65598;SHT31;52267;51.984;20.956;2023-03-01T05:28:42;-2.91;77.46
65598;SHT31;52267;51.984;20.956;2023-03-01T05:31:09;-2.86;77.35
65598;SHT31;52267;51.984;20.956;2023-03-01T05:33:36;-2.83;77.40
65598;SHT31;52267;51.984;20.956;2023-03-01T05:36:05;-2.78;77.62
65598;SHT31;52267;51.984;20.956;2023-03-01T05:38:41;-2.79;77.87
65598;SHT31;52267;51.984;20.956;2023-03-01T05:41:13;-2.80;78.00
65598;SHT31;52267;51.984;20.956;2023-03-01T05:43:43;-2.77;77.90
65598;SHT31;52267;51.984;20.956;2023-03-01T05:46:11;-2.74;77.87
65598;SHT31;52267;51.984;20.956;2023-03-01T05:48:39;-2.70;77.96
65598;SHT31;52267;51.984;20.956;2023-03-01T05:51:06;-2.67;77.90
65598;SHT31;52267;51.984;20.956;2023-03-01T05:53:33;-2.66;77.87
65598;SHT31;52267;51.984;20.956;2023-03-01T05:56:02;-2.67;77.92
65598;SHT31;52267;51.984;20.956;2023-03-01T05:58:31;-2.67;78.08
65598;SHT31;52267;51.984;20.956;2023-03-01T06:00:58;-2.67;78.27
65598;SHT31;52267;51.984;20.956;2023-03-01T06:03:25;-2.65;78.35
65598;SHT31;52267;51.984;20.956;2023-03-01T06:05:55;-2.65;78.49
65598;SHT31;52267;51.984;20.956;2023-03-01T06:08:23;-2.63;78.58
65598;SHT31;52267;51.984;20.956;2023-03-01T06:10:53;-2.56;78.49
65598;SHT31;52267;51.984;20.956;2023-03-01T06:13:20;-2.52;78.42
65598;SHT31;52267;51.984;20.956;2023-03-01T06:15:47;-2.47;78.40
65598;SHT31;52267;51.984;20.956;2023-03-01T06:18:14;-2.44;78.42
65598;SHT31;52267;51.984;20.956;2023-03-01T06:20:41;-2.39;78.46
65598;SHT31;52267;51.984;20.956;2023-03-01T06:23:08;-2.32;78.46
65598;SHT31;52267;51.984;20.956;2023-03-01T06:25:35;-2.29;78.54
65598;SHT31;52267;51.984;20.956;2023-03-01T06:28:03;-2.23;78.56
65598;SHT31;52267;51.984;20.956;2023-03-01T06:30:31;-2.17;78.55
65598;SHT31;52267;51.984;20.956;2023-03-01T06:32:58;-2.10;78.49
65598;SHT31;52267;51.984;20.956;2023-03-01T06:35:27;-2.02;78.29
65598;SHT31;52267;51.984;20.956;2023-03-01T06:37:56;-1.95;78.19
65598;SHT31;52267;51.984;20.956;2023-03-01T06:40:25;-1.87;78.11
65598;SHT31;52267;51.984;20.956;2023-03-01T06:42:55;-1.79;78.10
65598;SHT31;52267;51.984;20.956;2023-03-01T06:45:23;-1.71;78.05
65598;SHT31;52267;51.984;20.956;2023-03-01T06:47:51;-1.60;78.04
65598;SHT31;52267;51.984;20.956;2023-03-01T06:50:18;-1.49;77.99
65598;SHT31;52267;51.984;20.956;2023-03-01T06:52:45;-1.39;77.97
65598;SHT31;52267;51.984;20.956;2023-03-01T06:55:12;-1.28;77.94
65598;SHT31;52267;51.984;20.956;2023-03-01T06:57:40;-1.18;77.80
65598;SHT31;52267;51.984;20.956;2023-03-01T07:00:07;-1.05;77.68
65598;SHT31;52267;51.984;20.956;2023-03-01T07:02:35;-0.94;77.59
65598;SHT31;52267;51.984;20.956;2023-03-01T07:05:02;-0.82;77.39
65598;SHT31;52267;51.984;20.956;2023-03-01T07:07:30;-0.70;77.30
65598;SHT31;52267;51.984;20.956;2023-03-01T07:09:57;-0.57;77.17
65598;SHT31;52267;51.984;20.956;2023-03-01T07:12:24;-0.44;77.11
65598;SHT31;52267;51.984;20.956;2023-03-01T07:14:51;-0.29;76.92
65598;SHT31;52267;51.984;20.956;2023-03-01T07:17:18;-0.12;76.81
65598;SHT31;52267;51.984;20.956;2023-03-01T07:19:45;0.02;76.72
65598;SHT31;52267;51.984;20.956;2023-03-01T07:22:12;0.18;76.57
65598;SHT31;52267;51.984;20.956;2023-03-01T07:24:40;0.35;76.38
65598;SHT31;52267;51.984;20.956;2023-03-01T07:27:08;0.53;76.08
65598;SHT31;52267;51.984;20.956;2023-03-01T07:29:36;0.72;75.83
65598;SHT31;52267;51.984;20.956;2023-03-01T07:32:03;0.93;75.53
65598;SHT31;52267;51.984;20.956;2023-03-01T07:34:31;1.06;74.87
65598;SHT31;52267;51.984;20.956;2023-03-01T07:36:59;1.26;74.89
65598;SHT31;52267;51.984;20.956;2023-03-01T07:39:26;1.41;74.54
65598;SHT31;52267;51.984;20.956;2023-03-01T07:41:53;1.55;73.71
65598;SHT31;52267;51.984;20.956;2023-03-01T07:44:20;1.72;73.47
65598;SHT31;52267;51.984;20.956;2023-03-01T07:46:47;1.89;73.40
65598;SHT31;52267;51.984;20.956;2023-03-01T07:49:14;2.10;73.11
65598;SHT31;52267;51.984;20.956;2023-03-01T07:51:42;2.32;72.79
65598;SHT31;52267;51.984;20.956;2023-03-01T07:54:09;2.47;72.14
65598;SHT31;52267;51.984;20.956;2023-03-01T07:56:37;2.59;71.74
65598;SHT31;52267;51.984;20.956;2023-03-01T07:59:04;2.74;71.07
65598;SHT31;52267;51.984;20.956;2023-03-01T08:01:31;2.78;69.29
65598;SHT31;52267;51.984;20.956;2023-03-01T08:03:58;2.91;69.12
65598;SHT31;52267;51.984;20.956;2023-03-01T08:06:25;3.10;68.85
65598;SHT31;52267;51.984;20.956;2023-03-01T08:08:52;3.27;69.82
65598;SHT31;52267;51.984;20.956;2023-03-01T08:11:21;3.54;69.70
65598;SHT31;52267;51.984;20.956;2023-03-01T08:13:49;3.73;69.46
65598;SHT31;52267;51.984;20.956;2023-03-01T08:16:16;3.89;68.52
65598;SHT31;52267;51.984;20.956;2023-03-01T08:18:43;4.13;67.88
65598;SHT31;52267;51.984;20.956;2023-03-01T08:21:15;4.29;66.11
65598;SHT31;52267;51.984;20.956;2023-03-01T08:23:44;4.38;66.46
65598;SHT31;52267;51.984;20.956;2023-03-01T08:26:19;4.46;65.97
65598;SHT31;52267;51.984;20.956;2023-03-01T08:28:48;4.64;66.02
65598;SHT31;52267;51.984;20.956;2023-03-01T08:31:18;4.78;64.06
65598;SHT31;52267;51.984;20.956;2023-03-01T08:33:57;4.89;64.72
65598;SHT31;52267;51.984;20.956;2023-03-01T08:36:28;5.03;65.40
65598;SHT31;52267;51.984;20.956;2023-03-01T08:39:07;5.14;65.35
65598;SHT31;52267;51.984;20.956;2023-03-01T08:41:37;5.11;65.55
65598;SHT31;52267;51.984;20.956;2023-03-01T08:44:05;5.13;65.00
65598;SHT31;52267;51.984;20.956;2023-03-01T08:46:34;5.13;65.11
65598;SHT31;52267;51.984;20.956;2023-03-01T08:49:05;5.13;65.19
65598;SHT31;52267;51.984;20.956;2023-03-01T08:51:45;5.16;64.50
65598;SHT31;52267;51.984;20.956;2023-03-01T08:54:18;5.19;63.15
65598;SHT31;52267;51.984;20.956;2023-03-01T08:56:48;5.31;64.39
65598;SHT31;52267;51.984;20.956;2023-03-01T08:59:16;5.41;64.15
65598;SHT31;52267;51.984;20.956;2023-03-01T09:01:43;5.48;65.11
65598;SHT31;52267;51.984;20.956;2023-03-01T09:04:11;5.48;63.71
65598;SHT31;52267;51.984;20.956;2023-03-01T09:06:39;5.42;62.78
65598;SHT31;52267;51.984;20.956;2023-03-01T09:09:10;5.40;62.94
65598;SHT31;52267;51.984;20.956;2023-03-01T09:11:42;5.46;64.37
65598;SHT31;52267;51.984;20.956;2023-03-01T09:14:13;5.46;64.87
65598;SHT31;52267;51.984;20.956;2023-03-01T09:16:41;5.39;64.40
65598;SHT31;52267;51.984;20.956;2023-03-01T09:19:08;5.36;64.02
65598;SHT31;52267;51.984;20.956;2023-03-01T09:21:35;5.39;63.68
65598;SHT31;52267;51.984;20.956;2023-03-01T09:24:04;5.42;62.73
65598;SHT31;52267;51.984;20.956;2023-03-01T09:26:31;5.52;63.48
65598;SHT31;52267;51.984;20.956;2023-03-01T09:28:58;5.60;62.46
65598;SHT31;52267;51.984;20.956;2023-03-01T09:31:26;5.73;63.47
65598;SHT31;52267;51.984;20.956;2023-03-01T09:33:53;5.80;62.74
65598;SHT31;52267;51.984;20.956;2023-03-01T09:36:22;5.91;62.58
65598;SHT31;52267;51.984;20.956;2023-03-01T09:38:51;6.11;63.07
65598;SHT31;52267;51.984;20.956;2023-03-01T09:44:36;6.21;61.93
65598;SHT31;52267;51.984;20.956;2023-03-01T09:47:19;6.43;61.12
65598;SHT31;52267;51.984;20.956;2023-03-01T09:50:15;6.65;61.88
65598;SHT31;52267;51.984;20.956;2023-03-01T09:52:54;6.85;61.38
65598;SHT31;52267;51.984;20.956;2023-03-01T09:55:45;6.98;61.12
65598;SHT31;52267;51.984;20.956;2023-03-01T10:01:45;6.89;60.56
65598;SHT31;52267;51.984;20.956;2023-03-01T10:09:56;6.73;62.29
65598;SHT31;52267;51.984;20.956;2023-03-01T10:12:31;6.73;61.15
65598;SHT31;52267;51.984;20.956;2023-03-01T10:15:05;6.80;61.18
65598;SHT31;52267;51.984;20.956;2023-03-01T10:17:48;6.86;60.60
65598;SHT31;52267;51.984;20.956;2023-03-01T10:20:25;6.97;61.50
65598;SHT31;52267;51.984;20.956;2023-03-01T10:23:07;6.95;61.15
65598;SHT31;52267;51.984;20.956;2023-03-01T10:28:23;6.95;60.29
65598;SHT31;52267;51.984;20.956;2023-03-01T10:30:52;7.09;60.26
65598;SHT31;52267;51.984;20.956;2023-03-01T10:33:21;7.16;60.84
65598;SHT31;52267;51.984;20.956;2023-03-01T10:35:59;7.20;59.92
65598;SHT31;52267;51.984;20.956;2023-03-01T10:38:26;7.27;60.23
65598;SHT31;52267;51.984;20.956;2023-03-01T10:40:59;7.39;60.08
65598;SHT31;52267;51.984;20.956;2023-03-01T10:47:08;7.62;59.46
65598;SHT31;52267;51.984;20.956;2023-03-01T10:50:03;7.72;58.88
65598;SHT31;52267;51.984;20.956;2023-03-01T10:52:36;7.86;59.69
65598;SHT31;52267;51.984;20.956;2023-03-01T10:57:46;8.05;58.32
65598;SHT31;52267;51.984;20.956;2023-03-01T11:00:20;8.16;59.32
65598;SHT31;52267;51.984;20.956;2023-03-01T11:03:01;8.17;59.12
65598;SHT31;52267;51.984;20.956;2023-03-01T11:05:39;8.12;58.35
65598;SHT31;52267;51.984;20.956;2023-03-01T11:11:09;8.09;59.21
65598;SHT31;52267;51.984;20.956;2023-03-01T11:16:35;8.18;59.58
65598;SHT31;52267;51.984;20.956;2023-03-01T11:21:43;8.34;59.30
65598;SHT31;52267;51.984;20.956;2023-03-01T11:27:26;8.43;58.96
65598;SHT31;52267;51.984;20.956;2023-03-01T11:30:05;8.49;58.82
65598;SHT31;52267;51.984;20.956;2023-03-01T11:45:01;8.70;59.03
65598;SHT31;52267;51.984;20.956;2023-03-01T11:50:28;8.77;58.15
65598;SHT31;52267;51.984;20.956;2023-03-01T12:02:00;8.83;59.26
65598;SHT31;52267;51.984;20.956;2023-03-01T12:09:04;9.02;58.73
65598;SHT31;52267;51.984;20.956;2023-03-01T12:23:21;9.03;59.70
65598;SHT31;52267;51.984;20.956;2023-03-01T12:29:17;9.03;59.17
65598;SHT31;52267;51.984;20.956;2023-03-01T12:31:53;9.04;59.32
65598;SHT31;52267;51.984;20.956;2023-03-01T12:46:34;9.03;59.54
65598;SHT31;52267;51.984;20.956;2023-03-01T12:49:14;9.07;59.21
65598;SHT31;52267;51.984;20.956;2023-03-01T12:51:53;9.10;59.10
65598;SHT31;52267;51.984;20.956;2023-03-01T12:55:23;9.10;59.01
65598;SHT31;52267;51.984;20.956;2023-03-01T13:09:23;8.94;59.78
65598;SHT31;52267;51.984;20.956;2023-03-01T13:11:57;8.90;59.35
65598;SHT31;52267;51.984;20.956;2023-03-01T13:16:54;8.86;59.40
65598;SHT31;52267;51.984;20.956;2023-03-01T13:19:23;8.83;60.11
65598;SHT31;52267;51.984;20.956;2023-03-01T13:21:52;8.75;60.15
65598;SHT31;52267;51.984;20.956;2023-03-01T13:24:28;8.67;59.64
65598;SHT31;52267;51.984;20.956;2023-03-01T13:27:10;8.60;59.54
65598;SHT31;52267;51.984;20.956;2023-03-01T13:29:50;8.58;60.27
65598;SHT31;52267;51.984;20.956;2023-03-01T13:32:24;8.54;60.33
65598;SHT31;52267;51.984;20.956;2023-03-01T13:34:56;8.45;59.95
65598;SHT31;52267;51.984;20.956;2023-03-01T13:37:29;8.36;60.39
65598;SHT31;52267;51.984;20.956;2023-03-01T13:42:50;8.19;60.64
65598;SHT31;52267;51.984;20.956;2023-03-01T13:48:21;8.00;61.22
65598;SHT31;52267;51.984;20.956;2023-03-01T13:50:59;7.91;61.33
65598;SHT31;52267;51.984;20.956;2023-03-01T13:53:42;7.82;61.53
65598;SHT31;52267;51.984;20.956;2023-03-01T13:56:13;7.77;61.67
65598;SHT31;52267;51.984;20.956;2023-03-01T14:01:57;7.57;61.99
65598;SHT31;52267;51.984;20.956;2023-03-01T14:04:30;7.51;62.15
65598;SHT31;52267;51.984;20.956;2023-03-01T14:07:12;7.47;62.22
65598;SHT31;52267;51.984;20.956;2023-03-01T14:09:46;7.45;62.39
65598;SHT31;52267;51.984;20.956;2023-03-01T14:15:04;7.37;62.51
65598;SHT31;52267;51.984;20.956;2023-03-01T14:20:43;7.39;62.73
65598;SHT31;52267;51.984;20.956;2023-03-01T14:23:18;7.40;62.66
65598;SHT31;52267;51.984;20.956;2023-03-01T14:25:49;7.46;62.64
65598;SHT31;52267;51.984;20.956;2023-03-01T14:30:49;7.53;62.74
65598;SHT31;52267;51.984;20.956;2023-03-01T14:33:21;7.55;62.71
65598;SHT31;52267;51.984;20.956;2023-03-01T14:35:57;7.55;62.76
65598;SHT31;52267;51.984;20.956;2023-03-01T14:38:38;7.54;62.85
65598;SHT31;52267;51.984;20.956;2023-03-01T14:41:17;7.52;62.97
65598;SHT31;52267;51.984;20.956;2023-03-01T14:43:50;7.51;63.01
65598;SHT31;52267;51.984;20.956;2023-03-01T14:46:25;7.51;63.03
65598;SHT31;52267;51.984;20.956;2023-03-01T14:49:20;7.48;63.05
65598;SHT31;52267;51.984;20.956;2023-03-01T14:57:15;7.39;63.17
65598;SHT31;52267;51.984;20.956;2023-03-01T14:59:49;7.36;63.32
65598;SHT31;52267;51.984;20.956;2023-03-01T15:02:24;7.32;63.40
65598;SHT31;52267;51.984;20.956;2023-03-01T15:04:56;7.30;63.42
65598;SHT31;52267;51.984;20.956;2023-03-01T15:07:31;7.26;63.46
65598;SHT31;52267;51.984;20.956;2023-03-01T15:10:04;7.21;63.54
65598;SHT31;52267;51.984;20.956;2023-03-01T15:12:34;7.17;63.62
65598;SHT31;52267;51.984;20.956;2023-03-01T15:18:21;7.10;63.79
65598;SHT31;52267;51.984;20.956;2023-03-01T15:20:53;7.06;63.91
65598;SHT31;52267;51.984;20.956;2023-03-01T15:23:24;7.02;63.99
65598;SHT31;52267;51.984;20.956;2023-03-01T15:25:54;6.95;64.06
65598;SHT31;52267;51.984;20.956;2023-03-01T15:28:28;6.93;64.18
65598;SHT31;52267;51.984;20.956;2023-03-01T15:31:20;6.87;64.28
65598;SHT31;52267;51.984;20.956;2023-03-01T15:33:50;6.80;64.37
65598;SHT31;52267;51.984;20.956;2023-03-01T15:36:36;6.74;64.47
65598;SHT31;52267;51.984;20.956;2023-03-01T15:42:12;6.62;64.68
65598;SHT31;52267;51.984;20.956;2023-03-01T15:45:10;6.57;64.72
65598;SHT31;52267;51.984;20.956;2023-03-01T15:47:50;6.46;64.88
65598;SHT31;52267;51.984;20.956;2023-03-01T15:50:22;6.37;65.04
65598;SHT31;52267;51.984;20.956;2023-03-01T15:52:55;6.29;65.16
65598;SHT31;52267;51.984;20.956;2023-03-01T15:55:26;6.23;65.30
65598;SHT31;52267;51.984;20.956;2023-03-01T15:58:00;6.15;65.42
65598;SHT31;52267;51.984;20.956;2023-03-01T16:00:41;6.03;65.58
65598;SHT31;52267;51.984;20.956;2023-03-01T16:03:12;5.91;65.79
65598;SHT31;52267;51.984;20.956;2023-03-01T16:05:39;5.82;65.96
65598;SHT31;52267;51.984;20.956;2023-03-01T16:08:07;5.73;66.09
65598;SHT31;52267;51.984;20.956;2023-03-01T16:10:34;5.64;66.22
65598;SHT31;52267;51.984;20.956;2023-03-01T16:13:02;5.55;66.32
65598;SHT31;52267;51.984;20.956;2023-03-01T16:15:30;5.43;66.37
65598;SHT31;52267;51.984;20.956;2023-03-01T16:18:04;5.27;66.53
65598;SHT31;52267;51.984;20.956;2023-03-01T16:20:32;5.10;66.77
65598;SHT31;52267;51.984;20.956;2023-03-01T16:23:00;4.91;67.11
65598;SHT31;52267;51.984;20.956;2023-03-01T16:25:30;4.74;67.48
65598;SHT31;52267;51.984;20.956;2023-03-01T16:28:04;4.59;67.64
65598;SHT31;52267;51.984;20.956;2023-03-01T16:30:35;4.39;68.17
65598;SHT31;52267;51.984;20.956;2023-03-01T16:33:05;4.23;68.32
65598;SHT31;52267;51.984;20.956;2023-03-01T16:35:38;4.11;68.38
65598;SHT31;52267;51.984;20.956;2023-03-01T16:38:07;3.93;68.77
65598;SHT31;52267;51.984;20.956;2023-03-01T16:40:34;3.82;68.59
65598;SHT31;52267;51.984;20.956;2023-03-01T16:43:02;3.70;68.81
65598;SHT31;52267;51.984;20.956;2023-03-01T16:45:33;3.57;69.20
65598;SHT31;52267;51.984;20.956;2023-03-01T16:48:02;3.35;69.66
65598;SHT31;52267;51.984;20.956;2023-03-01T16:50:30;3.18;70.03
65598;SHT31;52267;51.984;20.956;2023-03-01T16:52:58;3.06;70.37
65598;SHT31;52267;51.984;20.956;2023-03-01T16:55:27;2.96;70.56
65598;SHT31;52267;51.984;20.956;2023-03-01T16:57:55;2.82;70.64
65598;SHT31;52267;51.984;20.956;2023-03-01T17:00:22;2.76;70.52
65598;SHT31;52267;51.984;20.956;2023-03-01T17:02:49;2.60;70.96
65598;SHT31;52267;51.984;20.956;2023-03-01T17:05:18;2.48;71.16
65598;SHT31;52267;51.984;20.956;2023-03-01T17:07:47;2.40;71.42
65598;SHT31;52267;51.984;20.956;2023-03-01T17:10:14;2.27;72.00
65598;SHT31;52267;51.984;20.956;2023-03-01T17:12:42;2.14;72.00
65598;SHT31;52267;51.984;20.956;2023-03-01T17:15:09;2.06;71.82
65598;SHT31;52267;51.984;20.956;2023-03-01T17:17:38;1.96;72.14
65598;SHT31;52267;51.984;20.956;2023-03-01T17:20:06;1.85;72.34
65598;SHT31;52267;51.984;20.956;2023-03-01T17:22:34;1.79;72.24
65598;SHT31;52267;51.984;20.956;2023-03-01T17:25:02;1.72;72.47
65598;SHT31;52267;51.984;20.956;2023-03-01T17:27:30;1.64;72.68
65598;SHT31;52267;51.984;20.956;2023-03-01T17:30:01;1.58;72.70
65598;SHT31;52267;51.984;20.956;2023-03-01T17:32:31;1.53;72.58
65598;SHT31;52267;51.984;20.956;2023-03-01T17:35:00;1.45;72.91
65598;SHT31;52267;51.984;20.956;2023-03-01T17:37:27;1.38;72.89
65598;SHT31;52267;51.984;20.956;2023-03-01T17:39:57;1.31;72.78
65598;SHT31;52267;51.984;20.956;2023-03-01T17:42:24;1.22;73.22
65598;SHT31;52267;51.984;20.956;2023-03-01T17:44:54;1.15;73.31
65598;SHT31;52267;51.984;20.956;2023-03-01T17:47:22;1.10;73.33
65598;SHT31;52267;51.984;20.956;2023-03-01T17:49:51;1.01;73.66
65598;SHT31;52267;51.984;20.956;2023-03-01T17:52:18;0.93;73.62
65598;SHT31;52267;51.984;20.956;2023-03-01T17:54:49;0.87;73.85
65598;SHT31;52267;51.984;20.956;2023-03-01T17:57:16;0.75;74.28
65598;SHT31;52267;51.984;20.956;2023-03-01T17:59:43;0.70;74.31
65598;SHT31;52267;51.984;20.956;2023-03-01T18:02:11;0.65;74.43
65598;SHT31;52267;51.984;20.956;2023-03-01T18:04:39;0.55;74.74
65598;SHT31;52267;51.984;20.956;2023-03-01T18:07:07;0.51;74.85
65598;SHT31;52267;51.984;20.956;2023-03-01T18:09:34;0.50;74.79
65598;SHT31;52267;51.984;20.956;2023-03-01T18:12:01;0.44;75.20
65598;SHT31;52267;51.984;20.956;2023-03-01T18:14:29;0.39;75.18